createdAt,value
2022-08-02T00:02:27.624Z,100212.25
2022-08-02T00:05:00.785Z,100214.39
2022-08-02T00:07:39.025Z,100216.20
2022-08-02T00:10:15.200Z,100212.45
2022-08-02T00:12:49.011Z,100215.06
2022-08-02T00:15:22.375Z,100218.61
2022-08-02T00:17:55.695Z,100216.52
2022-08-02T00:20:29.040Z,100217.05
2022-08-02T00:23:02.279Z,100220.95
2022-08-02T00:25:35.570Z,100223.92
2022-08-02T00:28:28.500Z,100218.13
2022-08-02T00:31:02.805Z,100217.44
2022-08-02T00:34:26.205Z,100215.06
2022-08-02T00:36:29.737Z,100207.83
2022-08-02T00:39:03.121Z,100207.83
2022-08-02T00:41:46.983Z,100210.98
2022-08-02T00:44:21.618Z,100217.41
2022-08-02T00:46:55.511Z,100223.87
2022-08-02T00:49:29.530Z,100223.73
2022-08-02T00:52:03.373Z,100227.00
2022-08-02T00:54:37.832Z,100224.55
2022-08-02T00:57:11.587Z,100229.11
2022-08-02T00:59:45.340Z,100228.59
2022-08-02T01:02:18.963Z,100229.99
2022-08-02T01:04:52.463Z,100228.59
2022-08-02T01:07:26.393Z,100231.75
2022-08-02T01:10:00.580Z,100233.21
2022-08-02T01:12:34.480Z,100237.74
2022-08-02T01:15:11.650Z,100236.09
2022-08-02T01:17:50.774Z,100238.91
2022-08-02T01:20:48.663Z,100238.85
2022-08-02T01:23:47.233Z,100234.98
2022-08-02T01:26:41.246Z,100231.02
2022-08-02T01:29:20.774Z,100226.62
2022-08-02T01:32:00.987Z,100229.36
2022-08-02T01:34:39.583Z,100230.27
2022-08-02T01:37:17.799Z,100230.08
2022-08-02T01:39:57.394Z,100229.38
2022-08-02T01:42:32.248Z,100230.76
2022-08-02T01:45:08.184Z,100232.88
2022-08-02T01:47:44.527Z,100234.23
2022-08-02T01:50:19.758Z,100233.27
2022-08-02T01:52:55.918Z,100238.77
2022-08-02T01:55:57.061Z,100241.29
2022-08-02T01:58:30.190Z,100240.91
2022-08-02T02:01:06.017Z,100237.83
2022-08-02T02:03:41.882Z,100239.32
2022-08-02T02:06:16.931Z,100245.60
2022-08-02T02:08:53.107Z,100245.09
2022-08-02T02:12:10.220Z,100247.64
2022-08-02T02:14:23.602Z,100243.11
2022-08-02T02:16:59.008Z,100243.23
2022-08-02T02:19:35.099Z,100241.88
2022-08-02T02:22:08.810Z,100246.86
2022-08-02T02:24:44.960Z,100243.36
2022-08-02T02:27:23.181Z,100249.17
2022-08-02T02:29:58.123Z,100247.93
2022-08-02T02:32:32.675Z,100247.84
2022-08-02T02:35:08.529Z,100249.99
2022-08-02T02:37:45.083Z,100250.44
2022-08-02T02:40:19.643Z,100251.02
2022-08-02T02:42:53.852Z,100249.86
2022-08-02T02:45:28.567Z,100248.55
2022-08-02T02:48:04.069Z,100248.51
2022-08-02T02:50:38.161Z,100247.30
2022-08-02T02:53:12.387Z,100244.51
2022-08-02T02:56:01.862Z,100243.27
2022-08-02T02:58:37.041Z,100245.48
2022-08-02T03:01:53.171Z,100240.86
2022-08-02T03:04:22.698Z,100244.13
2022-08-02T03:06:56.030Z,100240.61
2022-08-02T03:09:29.899Z,100237.48
2022-08-02T03:12:04.005Z,100240.27
2022-08-02T03:14:42.107Z,100238.55
2022-08-02T03:17:16.822Z,100241.04
2022-08-02T03:19:50.296Z,100239.05
2022-08-02T03:22:23.576Z,100237.00
2022-08-02T03:24:57.377Z,100241.20
2022-08-02T03:27:30.726Z,100242.27
2022-08-02T03:30:04.166Z,100247.28
2022-08-02T03:32:39.660Z,100245.62
2022-08-02T03:35:22.953Z,100253.67
2022-08-02T03:37:59.640Z,100254.77
2022-08-02T03:40:34.194Z,100254.71
2022-08-02T03:43:08.422Z,100260.20
2022-08-02T03:45:45.009Z,100256.30
2022-08-02T03:48:34.433Z,100260.52
2022-08-02T03:51:09.537Z,100263.66
2022-08-02T03:53:44.065Z,100267.60
2022-08-02T03:56:18.650Z,100270.05
2022-08-02T03:58:52.160Z,100276.38
2022-08-02T04:01:25.413Z,100270.55
2022-08-02T04:03:58.803Z,100271.84
2022-08-02T04:06:32.163Z,100272.77
2022-08-02T04:09:05.884Z,100277.96
2022-08-02T04:11:39.208Z,100276.63
2022-08-02T04:14:14.008Z,100281.48
2022-08-02T04:16:50.246Z,100283.43
2022-08-02T04:19:29.599Z,100284.25
2022-08-02T04:22:05.198Z,100286.73
2022-08-02T04:24:49.828Z,100289.64
2022-08-02T04:27:51.322Z,100293.48
2022-08-02T04:30:19.903Z,100297.77
2022-08-02T04:32:54.123Z,100295.05
2022-08-02T04:35:28.167Z,100301.86
2022-08-02T04:38:08.601Z,100299.77
2022-08-02T04:40:51.667Z,100301.41
2022-08-02T04:43:26.243Z,100305.16
2022-08-02T04:46:03.359Z,100310.25
2022-08-02T04:48:37.035Z,100315.54
2022-08-02T04:51:10.576Z,100319.30
2022-08-02T04:53:43.968Z,100319.50
2022-08-02T04:56:17.677Z,100321.98
2022-08-02T04:58:50.971Z,100324.34
2022-08-02T05:01:24.457Z,100329.92
2022-08-02T05:03:57.876Z,100327.93
2022-08-02T05:06:31.340Z,100328.11
2022-08-02T05:09:04.884Z,100330.88
2022-08-02T05:11:38.885Z,100335.36
2022-08-02T05:14:12.652Z,100341.42
2022-08-02T05:16:46.291Z,100345.14
2022-08-02T05:19:19.748Z,100349.08
2022-08-02T05:21:53.282Z,100351.64
2022-08-02T05:24:26.363Z,100346.48
2022-08-02T05:26:59.774Z,100350.63
2022-08-02T05:29:33.731Z,100352.65
2022-08-02T05:32:08.035Z,100353.83
2022-08-02T05:34:41.694Z,100352.11
2022-08-02T05:37:15.101Z,100355.48
2022-08-02T05:39:55.577Z,100361.73
2022-08-02T05:42:29.524Z,100360.69
2022-08-02T05:45:03.399Z,100359.96
2022-08-02T05:47:37.039Z,100365.27
2022-08-02T05:50:12.330Z,100366.84
2022-08-02T05:52:51.373Z,100368.23
2022-08-02T05:55:29.305Z,100364.59
2022-08-02T05:58:08.338Z,100366.58
2022-08-02T06:00:43.725Z,100369.98
2022-08-02T06:03:26.952Z,100372.02
2022-08-02T06:06:08.048Z,100375.05
2022-08-02T06:08:47.986Z,100376.29
2022-08-02T06:11:26.150Z,100375.90
2022-08-02T06:13:59.701Z,100376.14
2022-08-02T06:16:41.970Z,100375.28
2022-08-02T06:19:18.159Z,100378.33
2022-08-02T06:22:37.543Z,100379.01
2022-08-02T06:24:48.331Z,100375.34
2022-08-02T06:27:23.365Z,100378.88
2022-08-02T06:29:57.690Z,100378.86
2022-08-02T06:32:32.880Z,100379.72
2022-08-02T06:35:07.601Z,100383.38
2022-08-02T06:37:46.482Z,100388.20
2022-08-02T06:40:32.594Z,100392.73
2022-08-02T06:43:19.813Z,100393.73
2022-08-02T06:45:53.346Z,100396.96
2022-08-02T06:48:27.402Z,100401.34
2022-08-02T06:51:01.248Z,100403.86
2022-08-02T06:53:35.380Z,100399.30
2022-08-02T06:56:09.201Z,100400.10
2022-08-02T06:58:43.055Z,100402.27
2022-08-02T07:01:16.938Z,100402.91
2022-08-02T07:03:50.296Z,100404.41
2022-08-02T07:06:24.008Z,100403.57
2022-08-02T07:09:19.528Z,100403.85
2022-08-02T07:11:51.008Z,100405.83
2022-08-02T07:14:24.587Z,100403.60
2022-08-02T07:16:58.069Z,100408.83
2022-08-02T07:19:37.647Z,100420.15
2022-08-02T07:22:13.303Z,100423.20
2022-08-02T07:24:46.852Z,100421.92
2022-08-02T07:27:20.664Z,100423.09
2022-08-02T07:29:54.554Z,100421.52
2022-08-02T07:32:29.870Z,100419.38
2022-08-02T07:35:06.823Z,100419.25
2022-08-02T07:37:55.339Z,100425.35
2022-08-02T07:40:35.520Z,100427.09
2022-08-02T07:43:09.230Z,100423.53
2022-08-02T07:45:45.655Z,100422.29
2022-08-02T07:48:31.198Z,100424.25
2022-08-02T07:51:05.509Z,100423.77
2022-08-02T07:53:50.927Z,100418.88
2022-08-02T07:56:32.971Z,100421.15
2022-08-02T07:59:06.656Z,100418.27
2022-08-02T08:01:40.657Z,100423.07
2022-08-02T08:04:19.698Z,100424.02
2022-08-02T08:06:54.491Z,100426.32
2022-08-02T08:09:28.021Z,100428.55
2022-08-02T08:12:01.873Z,100429.30
2022-08-02T08:14:35.600Z,100430.60
2022-08-02T08:17:09.256Z,100429.58
2022-08-02T08:19:51.259Z,100431.61
2022-08-02T08:22:25.890Z,100426.83
2022-08-02T08:24:59.623Z,100430.67
2022-08-02T08:27:33.565Z,100431.81
2022-08-02T08:30:08.384Z,100430.75
2022-08-02T08:32:42.251Z,100434.28
2022-08-02T08:35:16.082Z,100436.02
2022-08-02T08:37:49.868Z,100434.98
2022-08-02T08:40:23.367Z,100433.85
2022-08-02T08:42:56.970Z,100435.45
2022-08-02T08:45:30.510Z,100431.27
2022-08-02T08:48:08.253Z,100432.58
2022-08-02T08:50:45.428Z,100436.70
2022-08-02T08:53:20.465Z,100436.05
2022-08-02T08:55:58.093Z,100437.45
2022-08-02T08:58:31.979Z,100436.02
2022-08-02T09:01:07.523Z,100441.61
2022-08-02T09:03:41.329Z,100441.13
2022-08-02T09:06:15.076Z,100437.04
2022-08-02T09:08:48.619Z,100439.34
2022-08-02T09:11:24.877Z,100437.58
2022-08-02T09:14:00.397Z,100438.31
2022-08-02T09:16:36.328Z,100436.96
2022-08-02T09:19:24.202Z,100437.96
2022-08-02T09:22:06.988Z,100439.90
2022-08-02T09:24:49.925Z,100441.52
2022-08-02T09:27:24.554Z,100447.05
2022-08-02T09:30:11.972Z,100446.46
2022-08-02T09:32:51.445Z,100447.84
2022-08-02T09:36:05.816Z,100447.83
2022-08-02T09:38:34.586Z,100447.02
2022-08-02T09:41:21.363Z,100445.23
2022-08-02T09:44:04.346Z,100447.68
2022-08-02T09:46:41.823Z,100444.98
2022-08-02T09:49:17.883Z,100448.16
2022-08-02T09:51:57.199Z,100450.06
2022-08-02T09:54:31.526Z,100447.67
2022-08-02T09:57:05.573Z,100447.38
2022-08-02T09:59:54.114Z,100449.01
2022-08-02T10:02:28.442Z,100450.34
2022-08-02T10:05:02.026Z,100453.64
2022-08-02T10:07:36.337Z,100450.13
2022-08-02T10:10:11.044Z,100449.55
2022-08-02T10:12:44.341Z,100447.88
2022-08-02T10:15:19.321Z,100444.63
2022-08-02T10:18:12.900Z,100444.83
2022-08-02T10:20:58.656Z,100446.34
2022-08-02T10:23:35.985Z,100443.98
2022-08-02T10:26:10.484Z,100443.98
2022-08-02T10:28:44.368Z,100443.91
2022-08-02T10:31:21.063Z,100440.73
2022-08-02T10:33:56.109Z,100444.36
2022-08-02T10:36:31.541Z,100443.20
2022-08-02T10:39:05.769Z,100441.89
2022-08-02T10:41:55.436Z,100442.86
2022-08-02T10:44:31.973Z,100444.41
2022-08-02T10:47:27.177Z,100442.48
2022-08-02T10:50:04.116Z,100440.63
2022-08-02T10:52:37.557Z,100437.92
2022-08-02T10:55:22.139Z,100440.94
2022-08-02T10:58:19.893Z,100439.77
2022-08-02T11:00:54.158Z,100440.17
2022-08-02T11:03:43.419Z,100437.33
2022-08-02T11:06:25.389Z,100432.30
2022-08-02T11:09:32.862Z,100433.60
2022-08-02T11:12:08.732Z,100434.42
2022-08-02T11:14:43.756Z,100431.83
2022-08-02T11:17:18.537Z,100434.28
2022-08-02T11:20:21.437Z,100433.34
2022-08-02T11:22:57.143Z,100433.25
2022-08-02T11:26:03.274Z,100433.78
2022-08-02T11:28:32.237Z,100434.79
2022-08-02T11:31:07.624Z,100430.65
2022-08-02T11:33:41.525Z,100436.78
2022-08-02T11:36:16.728Z,100438.13
2022-08-02T11:38:50.605Z,100439.52
2022-08-02T11:41:46.881Z,100438.59
2022-08-02T11:44:18.473Z,100440.80
2022-08-02T11:47:00.300Z,100441.19
2022-08-02T11:49:31.900Z,100443.38
2022-08-02T11:52:08.463Z,100444.03
2022-08-02T11:54:43.702Z,100438.58
2022-08-02T11:57:20.879Z,100443.95
2022-08-02T11:59:56.379Z,100439.13
2022-08-02T12:02:33.003Z,100443.79
2022-08-02T12:05:09.213Z,100443.48
2022-08-02T12:07:46.111Z,100439.17
2022-08-02T12:10:21.985Z,100437.27
2022-08-02T12:12:57.475Z,100438.87
2022-08-02T12:15:42.266Z,100437.77
2022-08-02T12:18:34.311Z,100434.88
2022-08-02T12:21:22.350Z,100435.20
2022-08-02T12:24:00.584Z,100435.48
2022-08-02T12:26:43.057Z,100435.69
2022-08-02T12:29:58.918Z,100433.31
2022-08-02T12:32:29.563Z,100435.42
2022-08-02T12:35:09.850Z,100433.85
2022-08-02T12:37:45.865Z,100436.91
2022-08-02T12:40:25.930Z,100434.08
2022-08-02T12:43:02.752Z,100437.06
2022-08-02T12:45:49.014Z,100436.58
2022-08-02T12:48:37.359Z,100434.27
2022-08-02T12:51:50.989Z,100435.59
2022-08-02T12:54:30.691Z,100439.02
2022-08-02T12:57:16.236Z,100439.38
2022-08-02T12:59:54.224Z,100434.53
2022-08-02T13:02:27.848Z,100437.11
2022-08-02T13:05:04.425Z,100439.91
2022-08-02T13:07:38.227Z,100434.44
2022-08-02T13:10:12.616Z,100432.51
2022-08-02T13:12:46.468Z,100435.39
2022-08-02T13:15:48.890Z,100440.60
2022-08-02T13:18:13.535Z,100442.77
2022-08-02T13:20:47.341Z,100438.38
2022-08-02T13:23:22.104Z,100439.73
2022-08-02T13:25:55.534Z,100441.73
2022-08-02T13:28:29.469Z,100438.28
2022-08-02T13:31:20.602Z,100439.91
2022-08-02T13:33:56.295Z,100439.77
2022-08-02T13:36:29.629Z,100440.79
2022-08-02T13:39:04.265Z,100441.80
2022-08-02T13:41:37.404Z,100442.22
2022-08-02T13:44:11.227Z,100440.95
2022-08-02T13:46:46.170Z,100441.53
2022-08-02T13:49:21.802Z,100440.86
2022-08-02T13:52:14.349Z,100444.99
2022-08-02T13:54:48.422Z,100448.02
2022-08-02T13:57:21.915Z,100445.71
2022-08-02T13:59:59.043Z,100444.00
2022-08-02T14:02:37.272Z,100436.77
2022-08-02T14:05:14.085Z,100429.73
2022-08-02T14:07:47.139Z,100427.63
2022-08-02T14:10:20.513Z,100427.90
2022-08-02T14:12:56.555Z,100427.00
2022-08-02T14:15:30.462Z,100428.84
2022-08-02T14:18:03.911Z,100427.09
2022-08-02T14:20:37.490Z,100424.70
2022-08-02T14:23:11.263Z,100423.50
2022-08-02T14:25:44.753Z,100422.44
2022-08-02T14:28:18.488Z,100424.80
2022-08-02T14:30:52.400Z,100418.36
2022-08-02T14:33:26.269Z,100420.91
2022-08-02T14:35:59.640Z,100426.63
2022-08-02T14:38:33.124Z,100426.83
2022-08-02T14:41:06.640Z,100428.93
2022-08-02T14:43:58.007Z,100422.98
2022-08-02T14:46:32.309Z,100420.78
2022-08-02T14:49:07.998Z,100423.33
2022-08-02T14:51:41.980Z,100420.13
2022-08-02T14:54:15.338Z,100423.30
2022-08-02T14:56:51.769Z,100421.77
2022-08-02T14:59:25.391Z,100421.95
2022-08-02T15:01:58.438Z,100423.01
2022-08-02T15:04:42.421Z,100422.42
2022-08-02T15:07:17.135Z,100419.24
2022-08-02T15:09:50.491Z,100418.14
2022-08-02T15:12:23.920Z,100416.55
2022-08-02T15:14:57.421Z,100421.00
2022-08-02T15:17:32.159Z,100422.92
2022-08-02T15:20:24.731Z,100425.06
2022-08-02T15:22:59.573Z,100416.31
2022-08-02T15:25:33.199Z,100416.66
2022-08-02T15:28:07.533Z,100419.88
2022-08-02T15:30:41.530Z,100420.45
2022-08-02T15:33:15.196Z,100425.59
2022-08-02T15:35:48.920Z,100423.91
2022-08-02T15:38:23.984Z,100429.56
2022-08-02T15:40:57.493Z,100429.34
2022-08-02T15:43:31.011Z,100429.80
2022-08-02T15:46:04.751Z,100427.09
2022-08-02T15:48:37.974Z,100432.82
2022-08-02T15:51:12.038Z,100429.77
2022-08-02T15:53:45.705Z,100435.30
2022-08-02T15:56:24.299Z,100429.18
2022-08-02T15:58:59.042Z,100434.31
2022-08-02T16:01:37.788Z,100436.90
2022-08-02T16:04:12.410Z,100435.02
2022-08-02T16:06:46.423Z,100431.65
2022-08-02T16:09:19.914Z,100434.05
2022-08-02T16:11:53.281Z,100435.79
2022-08-02T16:14:26.629Z,100437.39
2022-08-02T16:17:00.137Z,100437.14
2022-08-02T16:19:48.187Z,100435.66
2022-08-02T16:22:22.477Z,100437.13
2022-08-02T16:24:55.795Z,100435.77
2022-08-02T16:27:29.289Z,100442.29
2022-08-02T16:30:04.547Z,100445.39
2022-08-02T16:32:37.517Z,100440.91
2022-08-02T16:35:11.624Z,100440.95
2022-08-02T16:37:51.925Z,100443.35
2022-08-02T16:40:26.139Z,100444.85
2022-08-02T16:43:00.411Z,100440.59
2022-08-02T16:45:34.389Z,100442.52
2022-08-02T16:48:09.387Z,100446.79
2022-08-02T16:50:46.373Z,100447.05
2022-08-02T16:53:37.053Z,100446.02
2022-08-02T16:56:12.622Z,100447.87
2022-08-02T16:58:48.150Z,100452.15
2022-08-02T17:01:27.542Z,100452.39
2022-08-02T17:04:01.880Z,100450.70
2022-08-02T17:06:35.565Z,100451.79
2022-08-02T17:09:12.492Z,100452.14
2022-08-02T17:12:06.099Z,100458.23
2022-08-02T17:14:55.054Z,100454.83
2022-08-02T17:17:33.832Z,100456.84
2022-08-02T17:20:09.552Z,100455.96
2022-08-02T17:22:44.302Z,100455.02
2022-08-02T17:25:17.984Z,100455.27
2022-08-02T17:27:55.912Z,100453.98
2022-08-02T17:30:29.442Z,100458.06
2022-08-02T17:33:02.917Z,100460.36
2022-08-02T17:35:43.480Z,100456.00
2022-08-02T17:38:26.119Z,100462.49
2022-08-02T17:41:01.045Z,100457.48
2022-08-02T17:43:41.046Z,100465.00
2022-08-02T17:46:14.518Z,100464.35
2022-08-02T17:49:05.442Z,100466.16
2022-08-02T17:52:48.039Z,100466.42
2022-08-02T17:54:31.798Z,100464.42
2022-08-02T17:57:04.965Z,100463.64
2022-08-02T17:59:41.967Z,100463.70
2022-08-02T18:02:15.774Z,100471.54
2022-08-02T18:04:49.156Z,100474.50
2022-08-02T18:07:25.563Z,100475.73
2022-08-02T18:10:18.700Z,100477.64
2022-08-02T18:12:52.649Z,100482.71
2022-08-02T18:15:29.379Z,100483.81
2022-08-02T18:18:05.934Z,100482.06
2022-08-02T18:20:39.504Z,100488.39
2022-08-02T18:23:13.944Z,100490.58
2022-08-02T18:25:51.803Z,100489.86
2022-08-02T18:28:28.688Z,100488.07
2022-08-02T18:31:02.095Z,100485.67
2022-08-02T18:36:34.421Z,100492.86
2022-08-02T18:39:08.637Z,100497.41
2022-08-02T18:41:42.084Z,100500.57
2022-08-02T18:44:16.629Z,100504.52
2022-08-02T18:46:50.307Z,100503.35
2022-08-02T18:49:24.577Z,100507.64
2022-08-02T18:52:03.592Z,100507.89
2022-08-02T18:54:37.615Z,100509.56
2022-08-02T18:58:18.463Z,100513.63
2022-08-02T19:00:04.579Z,100516.98
2022-08-02T19:02:39.411Z,100519.40
2022-08-02T19:05:13.624Z,100521.44
2022-08-02T19:07:50.550Z,100522.02
2022-08-02T19:10:24.815Z,100519.99
2022-08-02T19:12:58.703Z,100519.56
2022-08-02T19:15:32.257Z,100522.75
2022-08-02T19:18:06.458Z,100526.49
2022-08-02T19:20:40.348Z,100524.55
2022-08-02T19:23:22.142Z,100524.61
2022-08-02T19:25:56.046Z,100528.39
2022-08-02T19:28:29.918Z,100524.42
2022-08-02T19:31:04.061Z,100526.21
2022-08-02T19:34:04.765Z,100527.34
2022-08-02T19:36:34.306Z,100530.39
2022-08-02T19:39:07.818Z,100529.14
2022-08-02T19:41:43.602Z,100529.79
2022-08-02T19:44:23.315Z,100530.77
2022-08-02T19:47:02.924Z,100528.01
2022-08-02T19:49:39.956Z,100525.14
2022-08-02T19:52:21.066Z,100518.88
2022-08-02T19:54:58.718Z,100515.08
2022-08-02T19:57:35.985Z,100513.13
2022-08-02T20:00:21.636Z,100513.40
2022-08-02T20:02:55.616Z,100516.25
2022-08-02T20:05:33.641Z,100514.02
2022-08-02T20:08:07.716Z,100513.34
2022-08-02T20:10:42.635Z,100513.90
2022-08-02T20:13:23.562Z,100514.68
2022-08-02T20:15:57.753Z,100518.34
2022-08-02T20:18:32.093Z,100517.80
2022-08-02T20:21:05.615Z,100524.73
2022-08-02T20:23:59.402Z,100520.54
2022-08-02T20:26:33.299Z,100524.71
2022-08-02T20:29:09.462Z,100523.06
2022-08-02T20:31:43.054Z,100522.99
2022-08-02T20:34:16.857Z,100526.46
2022-08-02T20:36:53.862Z,100527.80
2022-08-02T20:39:42.832Z,100527.15
2022-08-02T20:42:23.871Z,100530.00
2022-08-02T20:44:57.681Z,100530.16
2022-08-02T20:47:39.756Z,100533.08
2022-08-02T20:50:32.239Z,100525.36
2022-08-02T20:53:06.655Z,100529.31
2022-08-02T20:55:44.036Z,100533.48
2022-08-02T20:58:18.926Z,100536.00
2022-08-02T21:00:54.396Z,100537.90
2022-08-02T21:03:39.217Z,100531.50
2022-08-02T21:06:14.977Z,100532.11
2022-08-02T21:08:50.621Z,100533.09
2022-08-02T21:11:25.603Z,100528.94
2022-08-02T21:14:08.689Z,100532.48
2022-08-02T21:16:42.878Z,100535.64
2022-08-02T21:19:16.278Z,100535.09
2022-08-02T21:21:49.649Z,100535.11
2022-08-02T21:24:24.687Z,100536.80
2022-08-02T21:26:58.650Z,100533.33
2022-08-02T21:29:33.190Z,100532.63
2022-08-02T21:32:07.001Z,100531.16
2022-08-02T21:34:40.703Z,100537.08
2022-08-02T21:37:16.723Z,100533.54
2022-08-02T21:39:50.580Z,100536.20
2022-08-02T21:42:27.664Z,100535.34
2022-08-02T21:45:01.134Z,100535.30
2022-08-02T21:47:51.189Z,100532.91
2022-08-02T21:50:24.421Z,100531.45
2022-08-02T21:52:58.991Z,100535.08
2022-08-02T21:56:00.040Z,100537.94
2022-08-02T21:58:28.095Z,100537.59
2022-08-02T22:01:01.753Z,100537.20
2022-08-02T22:03:36.310Z,100537.45
2022-08-02T22:06:09.836Z,100536.96
2022-08-02T22:08:43.850Z,100539.03
2022-08-02T22:11:17.501Z,100540.36
2022-08-02T22:13:51.100Z,100537.21
2022-08-02T22:16:24.865Z,100540.85
2022-08-02T22:18:59.808Z,100541.52
2022-08-02T22:21:46.567Z,100538.83
2022-08-02T22:24:30.118Z,100541.04
2022-08-02T22:27:04.136Z,100539.66
2022-08-02T22:29:37.878Z,100545.29
2022-08-02T22:32:11.432Z,100545.10
2022-08-02T22:34:55.276Z,100545.95
2022-08-02T22:40:22.648Z,100547.58
2022-08-02T22:42:57.863Z,100543.20
2022-08-02T22:48:25.138Z,100547.76
2022-08-02T22:50:59.050Z,100551.35
2022-08-02T22:53:36.040Z,100551.11
2022-08-02T22:56:10.077Z,100554.67
2022-08-02T22:59:00.692Z,100485.90
2022-08-02T22:59:09.599Z,100546.75
2022-08-02T22:59:09.787Z,100545.95
2022-08-02T23:01:36.987Z,100552.86
2022-08-02T23:04:10.724Z,100560.44
2022-08-02T23:06:43.923Z,100556.69
2022-08-02T23:09:17.575Z,100561.38
2022-08-02T23:11:51.587Z,100561.45
2022-08-02T23:14:25.030Z,100565.14
2022-08-02T23:17:16.602Z,100570.67
2022-08-02T23:19:53.215Z,100567.66
2022-08-02T23:22:30.133Z,100565.75
2022-08-02T23:25:06.463Z,100563.84
2022-08-02T23:27:40.125Z,100567.13
2022-08-02T23:30:24.761Z,100561.41
2022-08-02T23:32:58.405Z,100556.88
2022-08-02T23:35:32.525Z,100556.36
2022-08-02T23:38:05.583Z,100556.86
2022-08-02T23:40:41.244Z,100553.50
2022-08-02T23:43:19.508Z,100553.47
2022-08-02T23:45:52.806Z,100553.67
2022-08-02T23:48:26.256Z,100553.17
2022-08-02T23:50:59.502Z,100556.95
2022-08-02T23:53:33.348Z,100561.35
2022-08-02T23:56:07.090Z,100559.23
2022-08-02T23:58:40.766Z,100563.49
